Terminal Aerodrome Forecast
Issued by NWS

Home | Current Version | Previous Version | Text Only | Print | Product List | Glossary On
Versions: 1 2 3 4 5 6 7 8 9 10 11 12 13 14 15 16 17 18 19 20 21 22 23 24 25 26 27 28 29 30 31 32 33 34 35 36 37 38 39 40
000
FTUS44 KHGX 191140
TAFLBX
TAF
KLBX 191140Z 1912/2012 05009KT P6SM -RA VCTS BKN006 OVC012CB
      TEMPO 1913/1915 3SM TSRA OVC005CB
     FM191800 03012KT 4SM BR VCSH BKN007 OVC015
     FM200300 36008KT P6SM OVC004=

USA.gov is the U.S. government's official web portal to all federal, state and local government web resources and services.